sensor_id;sensor_type;location;lat;lon;timestamp;temperature;humidity
17200;DHT22;8716;52.268;20.968;2023-02-18T00:01:54;9.20;99.90
17200;DHT22;8716;52.268;20.968;2023-02-18T00:04:25;9.20;99.90
17200;DHT22;8716;52.268;20.968;2023-02-18T00:06:55;9.20;99.90
17200;DHT22;8716;52.268;20.968;2023-02-18T00:09:23;9.20;99.90
17200;DHT22;8716;52.268;20.968;2023-02-18T00:11:52;9.10;99.90
17200;DHT22;8716;52.268;20.968;2023-02-18T00:14:20;9.10;99.90
17200;DHT22;8716;52.268;20.968;2023-02-18T00:16:49;9.10;99.90
17200;DHT22;8716;52.268;20.968;2023-02-18T00:19:19;9.10;99.90
17200;DHT22;8716;52.268;20.968;2023-02-18T00:21:47;9.10;99.90
17200;DHT22;8716;52.268;20.968;2023-02-18T00:24:18;9.10;99.90
17200;DHT22;8716;52.268;20.968;2023-02-18T00:26:49;9.00;99.90
17200;DHT22;8716;52.268;20.968;2023-02-18T00:29:19;9.00;99.90
17200;DHT22;8716;52.268;20.968;2023-02-18T00:31:51;8.90;99.90
17200;DHT22;8716;52.268;20.968;2023-02-18T00:34:23;9.00;99.90
17200;DHT22;8716;52.268;20.968;2023-02-18T00:36:51;8.90;99.90
17200;DHT22;8716;52.268;20.968;2023-02-18T00:39:19;8.90;99.90
17200;DHT22;8716;52.268;20.968;2023-02-18T00:41:48;8.90;99.90
17200;DHT22;8716;52.268;20.968;2023-02-18T00:44:18;8.90;99.90
17200;DHT22;8716;52.268;20.968;2023-02-18T00:46:46;8.90;99.90
17200;DHT22;8716;52.268;20.968;2023-02-18T00:49:18;8.90;99.90
17200;DHT22;8716;52.268;20.968;2023-02-18T00:51:51;8.90;99.90
17200;DHT22;8716;52.268;20.968;2023-02-18T00:54:24;8.80;99.90
17200;DHT22;8716;52.268;20.968;2023-02-18T00:56:52;8.80;99.90
17200;DHT22;8716;52.268;20.968;2023-02-18T00:59:20;8.80;99.90
17200;DHT22;8716;52.268;20.968;2023-02-18T01:01:49;8.90;99.90
17200;DHT22;8716;52.268;20.968;2023-02-18T01:04:17;8.80;99.90
17200;DHT22;8716;52.268;20.968;2023-02-18T01:06:48;8.80;99.90
17200;DHT22;8716;52.268;20.968;2023-02-18T01:09:16;8.80;99.90
17200;DHT22;8716;52.268;20.968;2023-02-18T01:11:44;8.70;99.90
17200;DHT22;8716;52.268;20.968;2023-02-18T01:14:15;8.70;99.90
17200;DHT22;8716;52.268;20.968;2023-02-18T01:16:43;8.70;99.90
17200;DHT22;8716;52.268;20.968;2023-02-18T01:19:11;8.70;99.90
17200;DHT22;8716;52.268;20.968;2023-02-18T01:21:42;8.70;99.90
17200;DHT22;8716;52.268;20.968;2023-02-18T01:24:15;8.70;99.90
17200;DHT22;8716;52.268;20.968;2023-02-18T01:26:43;8.70;99.90
17200;DHT22;8716;52.268;20.968;2023-02-18T01:29:14;8.70;99.90
17200;DHT22;8716;52.268;20.968;2023-02-18T01:31:42;8.60;99.90
17200;DHT22;8716;52.268;20.968;2023-02-18T01:34:10;8.60;99.90
17200;DHT22;8716;52.268;20.968;2023-02-18T01:36:38;8.60;99.90
17200;DHT22;8716;52.268;20.968;2023-02-18T01:39:07;8.50;99.90
17200;DHT22;8716;52.268;20.968;2023-02-18T01:41:36;8.50;99.90
17200;DHT22;8716;52.268;20.968;2023-02-18T01:44:13;8.60;99.90
17200;DHT22;8716;52.268;20.968;2023-02-18T01:46:44;8.60;99.90
17200;DHT22;8716;52.268;20.968;2023-02-18T01:49:16;8.50;99.90
17200;DHT22;8716;52.268;20.968;2023-02-18T01:51:49;8.50;99.90
17200;DHT22;8716;52.268;20.968;2023-02-18T01:54:23;8.60;99.90
17200;DHT22;8716;52.268;20.968;2023-02-18T01:56:56;8.60;99.90
17200;DHT22;8716;52.268;20.968;2023-02-18T01:59:30;8.60;99.90
17200;DHT22;8716;52.268;20.968;2023-02-18T02:02:00;8.60;99.90
17200;DHT22;8716;52.268;20.968;2023-02-18T02:04:28;8.60;99.90
17200;DHT22;8716;52.268;20.968;2023-02-18T02:06:57;8.50;99.90
17200;DHT22;8716;52.268;20.968;2023-02-18T02:09:28;8.50;99.90
17200;DHT22;8716;52.268;20.968;2023-02-18T02:12:37;8.50;99.90
17200;DHT22;8716;52.268;20.968;2023-02-18T02:15:22;8.60;99.90
17200;DHT22;8716;52.268;20.968;2023-02-18T02:18:16;8.60;99.90
17200;DHT22;8716;52.268;20.968;2023-02-18T02:27:18;8.50;99.90
17200;DHT22;8716;52.268;20.968;2023-02-18T02:36:02;8.30;99.90
17200;DHT22;8716;52.268;20.968;2023-02-18T02:38:37;8.30;99.90
17200;DHT22;8716;52.268;20.968;2023-02-18T02:41:15;8.30;99.90
17200;DHT22;8716;52.268;20.968;2023-02-18T02:43:55;8.20;99.90
17200;DHT22;8716;52.268;20.968;2023-02-18T02:46:33;8.10;99.90
17200;DHT22;8716;52.268;20.968;2023-02-18T02:49:09;8.20;99.90
17200;DHT22;8716;52.268;20.968;2023-02-18T02:51:47;8.20;99.90
17200;DHT22;8716;52.268;20.968;2023-02-18T02:54:20;8.20;99.90
17200;DHT22;8716;52.268;20.968;2023-02-18T02:56:49;8.20;99.90
17200;DHT22;8716;52.268;20.968;2023-02-18T02:59:23;8.10;99.90
17200;DHT22;8716;52.268;20.968;2023-02-18T03:02:06;8.10;99.90
17200;DHT22;8716;52.268;20.968;2023-02-18T03:05:09;8.10;99.90
17200;DHT22;8716;52.268;20.968;2023-02-18T03:07:58;8.10;99.90
17200;DHT22;8716;52.268;20.968;2023-02-18T03:10:47;8.10;99.90
17200;DHT22;8716;52.268;20.968;2023-02-18T03:13:25;8.10;99.90
17200;DHT22;8716;52.268;20.968;2023-02-18T03:15:59;8.00;99.90
17200;DHT22;8716;52.268;20.968;2023-02-18T03:18:36;8.00;99.90
17200;DHT22;8716;52.268;20.968;2023-02-18T03:21:09;8.00;99.90
17200;DHT22;8716;52.268;20.968;2023-02-18T03:23:44;8.10;99.90
17200;DHT22;8716;52.268;20.968;2023-02-18T03:26:16;8.00;99.90
17200;DHT22;8716;52.268;20.968;2023-02-18T03:28:50;8.00;99.90
17200;DHT22;8716;52.268;20.968;2023-02-18T03:31:22;8.00;99.90
17200;DHT22;8716;52.268;20.968;2023-02-18T03:33:56;8.00;99.90
17200;DHT22;8716;52.268;20.968;2023-02-18T03:36:29;8.00;99.90
17200;DHT22;8716;52.268;20.968;2023-02-18T03:39:03;8.00;99.90
17200;DHT22;8716;52.268;20.968;2023-02-18T03:41:32;7.90;99.90
17200;DHT22;8716;52.268;20.968;2023-02-18T03:44:03;7.90;99.90
17200;DHT22;8716;52.268;20.968;2023-02-18T03:46:33;7.90;99.90
17200;DHT22;8716;52.268;20.968;2023-02-18T03:49:03;7.90;99.90
17200;DHT22;8716;52.268;20.968;2023-02-18T03:51:31;7.90;99.90
17200;DHT22;8716;52.268;20.968;2023-02-18T03:54:01;7.90;99.90
17200;DHT22;8716;52.268;20.968;2023-02-18T03:56:32;7.90;99.90
17200;DHT22;8716;52.268;20.968;2023-02-18T03:59:00;8.00;99.90
17200;DHT22;8716;52.268;20.968;2023-02-18T04:01:29;8.00;99.90
17200;DHT22;8716;52.268;20.968;2023-02-18T04:03:57;7.90;99.90
17200;DHT22;8716;52.268;20.968;2023-02-18T04:06:28;7.90;99.90
17200;DHT22;8716;52.268;20.968;2023-02-18T04:08:56;7.80;99.90
17200;DHT22;8716;52.268;20.968;2023-02-18T04:11:26;7.80;99.90
17200;DHT22;8716;52.268;20.968;2023-02-18T04:13:56;7.90;99.90
17200;DHT22;8716;52.268;20.968;2023-02-18T04:16:25;7.90;99.90
17200;DHT22;8716;52.268;20.968;2023-02-18T04:18:53;7.90;99.90
17200;DHT22;8716;52.268;20.968;2023-02-18T04:21:21;7.80;99.90
17200;DHT22;8716;52.268;20.968;2023-02-18T04:23:49;7.70;99.90
17200;DHT22;8716;52.268;20.968;2023-02-18T04:26:17;7.70;99.90
17200;DHT22;8716;52.268;20.968;2023-02-18T04:28:47;7.70;99.90
17200;DHT22;8716;52.268;20.968;2023-02-18T04:31:15;7.70;99.90
17200;DHT22;8716;52.268;20.968;2023-02-18T04:33:44;7.70;99.90
17200;DHT22;8716;52.268;20.968;2023-02-18T04:36:14;7.80;99.90
17200;DHT22;8716;52.268;20.968;2023-02-18T04:38:42;7.70;99.90
17200;DHT22;8716;52.268;20.968;2023-02-18T04:41:10;7.60;99.90
17200;DHT22;8716;52.268;20.968;2023-02-18T04:43:39;7.60;99.90
17200;DHT22;8716;52.268;20.968;2023-02-18T04:46:08;7.60;99.90
17200;DHT22;8716;52.268;20.968;2023-02-18T04:48:37;7.60;99.90
17200;DHT22;8716;52.268;20.968;2023-02-18T04:51:05;7.60;99.90
17200;DHT22;8716;52.268;20.968;2023-02-18T04:53:34;7.60;99.90
17200;DHT22;8716;52.268;20.968;2023-02-18T04:56:02;7.70;99.90
17200;DHT22;8716;52.268;20.968;2023-02-18T04:58:31;7.60;99.90
17200;DHT22;8716;52.268;20.968;2023-02-18T05:00:59;7.60;99.90
17200;DHT22;8716;52.268;20.968;2023-02-18T05:03:29;7.60;99.90
17200;DHT22;8716;52.268;20.968;2023-02-18T05:05:58;7.60;99.90
17200;DHT22;8716;52.268;20.968;2023-02-18T05:08:26;7.60;99.90
17200;DHT22;8716;52.268;20.968;2023-02-18T05:10:54;7.60;99.90
17200;DHT22;8716;52.268;20.968;2023-02-18T05:13:23;7.60;99.90
17200;DHT22;8716;52.268;20.968;2023-02-18T05:15:51;7.50;99.90
17200;DHT22;8716;52.268;20.968;2023-02-18T05:18:20;7.50;99.90
17200;DHT22;8716;52.268;20.968;2023-02-18T05:20:49;7.50;99.90
17200;DHT22;8716;52.268;20.968;2023-02-18T05:23:17;7.50;99.90
17200;DHT22;8716;52.268;20.968;2023-02-18T05:25:47;7.50;99.90
17200;DHT22;8716;52.268;20.968;2023-02-18T05:28:15;7.50;99.90
17200;DHT22;8716;52.268;20.968;2023-02-18T05:30:44;7.50;99.90
17200;DHT22;8716;52.268;20.968;2023-02-18T05:33:12;7.50;99.90
17200;DHT22;8716;52.268;20.968;2023-02-18T05:35:40;7.50;99.90
17200;DHT22;8716;52.268;20.968;2023-02-18T05:38:10;7.50;99.90
17200;DHT22;8716;52.268;20.968;2023-02-18T05:40:41;7.40;99.90
17200;DHT22;8716;52.268;20.968;2023-02-18T05:43:09;7.40;99.90
17200;DHT22;8716;52.268;20.968;2023-02-18T05:45:37;7.40;99.90
17200;DHT22;8716;52.268;20.968;2023-02-18T05:48:06;7.40;99.90
17200;DHT22;8716;52.268;20.968;2023-02-18T05:50:36;7.40;99.90
17200;DHT22;8716;52.268;20.968;2023-02-18T05:53:05;7.40;99.90
17200;DHT22;8716;52.268;20.968;2023-02-18T05:55:34;7.40;99.90
17200;DHT22;8716;52.268;20.968;2023-02-18T05:58:05;7.40;99.90
17200;DHT22;8716;52.268;20.968;2023-02-18T06:00:33;7.30;99.90
17200;DHT22;8716;52.268;20.968;2023-02-18T06:03:01;7.40;99.90
17200;DHT22;8716;52.268;20.968;2023-02-18T06:05:29;7.40;99.90
17200;DHT22;8716;52.268;20.968;2023-02-18T06:07:58;7.40;99.90
17200;DHT22;8716;52.268;20.968;2023-02-18T06:10:26;7.40;99.90
17200;DHT22;8716;52.268;20.968;2023-02-18T06:12:55;7.40;99.90
17200;DHT22;8716;52.268;20.968;2023-02-18T06:15:23;7.50;99.90
17200;DHT22;8716;52.268;20.968;2023-02-18T06:17:52;7.50;99.90
17200;DHT22;8716;52.268;20.968;2023-02-18T06:20:20;7.40;99.90
17200;DHT22;8716;52.268;20.968;2023-02-18T06:22:48;7.40;99.90
17200;DHT22;8716;52.268;20.968;2023-02-18T06:25:16;7.40;99.90
17200;DHT22;8716;52.268;20.968;2023-02-18T06:27:44;7.40;99.90
17200;DHT22;8716;52.268;20.968;2023-02-18T06:30:14;7.40;99.90
17200;DHT22;8716;52.268;20.968;2023-02-18T06:32:43;7.50;99.90
17200;DHT22;8716;52.268;20.968;2023-02-18T06:35:11;7.50;99.90
17200;DHT22;8716;52.268;20.968;2023-02-18T06:37:39;7.50;99.90
17200;DHT22;8716;52.268;20.968;2023-02-18T06:40:08;7.40;99.90
17200;DHT22;8716;52.268;20.968;2023-02-18T06:42:36;7.40;99.90
17200;DHT22;8716;52.268;20.968;2023-02-18T06:45:05;7.50;99.90
17200;DHT22;8716;52.268;20.968;2023-02-18T06:47:35;7.50;99.90
17200;DHT22;8716;52.268;20.968;2023-02-18T06:50:04;7.50;99.90
17200;DHT22;8716;52.268;20.968;2023-02-18T06:52:32;7.50;99.90
17200;DHT22;8716;52.268;20.968;2023-02-18T06:55:00;7.60;99.90
17200;DHT22;8716;52.268;20.968;2023-02-18T06:57:28;7.60;99.90
17200;DHT22;8716;52.268;20.968;2023-02-18T06:59:57;7.60;99.90
17200;DHT22;8716;52.268;20.968;2023-02-18T07:02:25;7.60;99.90
17200;DHT22;8716;52.268;20.968;2023-02-18T07:04:55;7.60;99.90
17200;DHT22;8716;52.268;20.968;2023-02-18T07:07:23;7.60;99.90
17200;DHT22;8716;52.268;20.968;2023-02-18T07:09:51;7.70;99.90
17200;DHT22;8716;52.268;20.968;2023-02-18T07:12:19;7.80;99.90
17200;DHT22;8716;52.268;20.968;2023-02-18T07:14:48;7.80;99.90
17200;DHT22;8716;52.268;20.968;2023-02-18T07:17:16;7.80;99.90
17200;DHT22;8716;52.268;20.968;2023-02-18T07:19:44;7.90;99.90
17200;DHT22;8716;52.268;20.968;2023-02-18T07:22:14;7.90;99.90
17200;DHT22;8716;52.268;20.968;2023-02-18T07:24:42;8.00;99.90
17200;DHT22;8716;52.268;20.968;2023-02-18T07:27:10;8.10;99.90
17200;DHT22;8716;52.268;20.968;2023-02-18T07:29:39;8.10;99.90
17200;DHT22;8716;52.268;20.968;2023-02-18T07:32:07;8.20;99.90
17200;DHT22;8716;52.268;20.968;2023-02-18T07:34:41;8.20;99.90
17200;DHT22;8716;52.268;20.968;2023-02-18T07:37:09;8.30;99.90
17200;DHT22;8716;52.268;20.968;2023-02-18T07:39:42;8.30;99.90
17200;DHT22;8716;52.268;20.968;2023-02-18T07:42:14;8.30;99.90
17200;DHT22;8716;52.268;20.968;2023-02-18T07:44:43;8.40;99.90
17200;DHT22;8716;52.268;20.968;2023-02-18T07:47:14;8.50;99.90
17200;DHT22;8716;52.268;20.968;2023-02-18T07:49:43;8.60;99.90
17200;DHT22;8716;52.268;20.968;2023-02-18T07:52:11;8.60;99.90
17200;DHT22;8716;52.268;20.968;2023-02-18T07:54:39;8.60;99.90
17200;DHT22;8716;52.268;20.968;2023-02-18T07:57:14;8.70;99.90
17200;DHT22;8716;52.268;20.968;2023-02-18T07:59:42;8.70;99.90
17200;DHT22;8716;52.268;20.968;2023-02-18T08:02:16;8.70;99.90
17200;DHT22;8716;52.268;20.968;2023-02-18T08:04:44;8.70;99.90
17200;DHT22;8716;52.268;20.968;2023-02-18T08:07:13;8.70;99.90
17200;DHT22;8716;52.268;20.968;2023-02-18T08:09:41;8.70;99.90
17200;DHT22;8716;52.268;20.968;2023-02-18T08:12:11;8.70;99.90
17200;DHT22;8716;52.268;20.968;2023-02-18T08:14:39;8.70;99.90
17200;DHT22;8716;52.268;20.968;2023-02-18T08:17:08;8.80;99.90
17200;DHT22;8716;52.268;20.968;2023-02-18T08:19:36;8.80;99.90
17200;DHT22;8716;52.268;20.968;2023-02-18T08:22:04;8.90;99.90
17200;DHT22;8716;52.268;20.968;2023-02-18T08:24:33;8.90;99.90
17200;DHT22;8716;52.268;20.968;2023-02-18T08:27:03;9.00;99.90
17200;DHT22;8716;52.268;20.968;2023-02-18T08:29:33;9.00;99.90
17200;DHT22;8716;52.268;20.968;2023-02-18T08:32:01;9.00;99.90
17200;DHT22;8716;52.268;20.968;2023-02-18T08:34:29;9.10;99.90
17200;DHT22;8716;52.268;20.968;2023-02-18T08:36:57;9.10;99.90
17200;DHT22;8716;52.268;20.968;2023-02-18T08:39:25;9.10;99.90
17200;DHT22;8716;52.268;20.968;2023-02-18T08:41:55;9.20;99.90
17200;DHT22;8716;52.268;20.968;2023-02-18T08:44:24;9.30;99.90
17200;DHT22;8716;52.268;20.968;2023-02-18T08:46:53;9.30;99.90
17200;DHT22;8716;52.268;20.968;2023-02-18T08:49:22;9.40;99.90
17200;DHT22;8716;52.268;20.968;2023-02-18T08:51:50;9.50;99.90
17200;DHT22;8716;52.268;20.968;2023-02-18T08:54:19;9.50;99.90
17200;DHT22;8716;52.268;20.968;2023-02-18T08:56:47;9.50;99.90
17200;DHT22;8716;52.268;20.968;2023-02-18T08:59:15;9.50;99.90
17200;DHT22;8716;52.268;20.968;2023-02-18T09:01:43;9.60;99.90
17200;DHT22;8716;52.268;20.968;2023-02-18T09:04:16;9.60;99.90
17200;DHT22;8716;52.268;20.968;2023-02-18T09:06:44;9.70;99.90
17200;DHT22;8716;52.268;20.968;2023-02-18T09:09:13;9.80;99.90
17200;DHT22;8716;52.268;20.968;2023-02-18T09:11:41;9.90;99.90
17200;DHT22;8716;52.268;20.968;2023-02-18T09:14:09;10.10;99.90
17200;DHT22;8716;52.268;20.968;2023-02-18T09:16:38;10.20;99.90
17200;DHT22;8716;52.268;20.968;2023-02-18T09:19:09;10.30;99.90
17200;DHT22;8716;52.268;20.968;2023-02-18T09:21:41;10.30;99.90
17200;DHT22;8716;52.268;20.968;2023-02-18T09:24:11;10.20;99.90
17200;DHT22;8716;52.268;20.968;2023-02-18T09:26:39;10.20;99.90
17200;DHT22;8716;52.268;20.968;2023-02-18T09:29:08;10.30;99.90
17200;DHT22;8716;52.268;20.968;2023-02-18T09:31:37;10.30;99.90
17200;DHT22;8716;52.268;20.968;2023-02-18T09:34:06;10.30;99.90
17200;DHT22;8716;52.268;20.968;2023-02-18T09:36:34;10.30;99.90
17200;DHT22;8716;52.268;20.968;2023-02-18T09:39:04;10.30;99.90
17200;DHT22;8716;52.268;20.968;2023-02-18T09:41:38;10.40;99.90
17200;DHT22;8716;52.268;20.968;2023-02-18T09:44:12;10.30;99.90
17200;DHT22;8716;52.268;20.968;2023-02-18T09:46:49;10.20;99.90
17200;DHT22;8716;52.268;20.968;2023-02-18T09:49:23;10.20;99.90
17200;DHT22;8716;52.268;20.968;2023-02-18T09:51:56;10.00;99.90
17200;DHT22;8716;52.268;20.968;2023-02-18T09:54:27;10.10;99.90
17200;DHT22;8716;52.268;20.968;2023-02-18T09:56:55;10.10;99.90
17200;DHT22;8716;52.268;20.968;2023-02-18T09:59:25;10.10;99.90
17200;DHT22;8716;52.268;20.968;2023-02-18T10:01:54;10.00;99.90
17200;DHT22;8716;52.268;20.968;2023-02-18T10:04:27;10.00;99.90
17200;DHT22;8716;52.268;20.968;2023-02-18T10:06:58;9.90;99.90
17200;DHT22;8716;52.268;20.968;2023-02-18T10:09:33;9.80;99.90
17200;DHT22;8716;52.268;20.968;2023-02-18T10:12:10;9.80;99.90
17200;DHT22;8716;52.268;20.968;2023-02-18T10:14:40;9.80;99.90
17200;DHT22;8716;52.268;20.968;2023-02-18T10:17:12;9.90;99.90
17200;DHT22;8716;52.268;20.968;2023-02-18T10:19:44;9.80;99.90
17200;DHT22;8716;52.268;20.968;2023-02-18T10:22:14;9.80;99.90
17200;DHT22;8716;52.268;20.968;2023-02-18T10:24:47;9.80;99.90
17200;DHT22;8716;52.268;20.968;2023-02-18T10:27:22;9.80;99.90
17200;DHT22;8716;52.268;20.968;2023-02-18T10:29:52;9.80;99.90
17200;DHT22;8716;52.268;20.968;2023-02-18T10:32:23;9.90;99.90
17200;DHT22;8716;52.268;20.968;2023-02-18T10:34:58;10.10;99.90
17200;DHT22;8716;52.268;20.968;2023-02-18T10:37:38;10.20;99.90
17200;DHT22;8716;52.268;20.968;2023-02-18T10:40:17;10.30;99.90
17200;DHT22;8716;52.268;20.968;2023-02-18T10:42:58;10.40;99.90
17200;DHT22;8716;52.268;20.968;2023-02-18T10:45:41;10.50;99.90
17200;DHT22;8716;52.268;20.968;2023-02-18T10:48:28;10.50;99.90
17200;DHT22;8716;52.268;20.968;2023-02-18T10:51:03;10.60;99.90
17200;DHT22;8716;52.268;20.968;2023-02-18T10:53:39;10.60;99.90
17200;DHT22;8716;52.268;20.968;2023-02-18T10:56:31;10.60;99.90
17200;DHT22;8716;52.268;20.968;2023-02-18T10:59:11;10.70;99.90
17200;DHT22;8716;52.268;20.968;2023-02-18T11:01:40;10.70;99.90
17200;DHT22;8716;52.268;20.968;2023-02-18T11:04:15;10.70;99.90
17200;DHT22;8716;52.268;20.968;2023-02-18T11:06:46;10.60;99.90
17200;DHT22;8716;52.268;20.968;2023-02-18T11:09:25;10.50;99.90
17200;DHT22;8716;52.268;20.968;2023-02-18T11:12:01;10.40;99.90
17200;DHT22;8716;52.268;20.968;2023-02-18T11:14:38;10.30;99.90
17200;DHT22;8716;52.268;20.968;2023-02-18T11:17:17;10.30;99.90
17200;DHT22;8716;52.268;20.968;2023-02-18T11:19:55;10.30;99.90
17200;DHT22;8716;52.268;20.968;2023-02-18T11:22:27;10.30;99.90
17200;DHT22;8716;52.268;20.968;2023-02-18T11:24:56;10.30;99.90
17200;DHT22;8716;52.268;20.968;2023-02-18T11:27:31;10.20;99.90
17200;DHT22;8716;52.268;20.968;2023-02-18T11:30:02;10.20;99.90
17200;DHT22;8716;52.268;20.968;2023-02-18T11:32:34;10.30;99.90
17200;DHT22;8716;52.268;20.968;2023-02-18T11:35:04;10.30;99.90
17200;DHT22;8716;52.268;20.968;2023-02-18T11:37:34;10.30;99.90
17200;DHT22;8716;52.268;20.968;2023-02-18T11:40:05;10.20;99.90
17200;DHT22;8716;52.268;20.968;2023-02-18T11:42:35;10.20;99.90
17200;DHT22;8716;52.268;20.968;2023-02-18T11:45:03;10.20;99.90
17200;DHT22;8716;52.268;20.968;2023-02-18T11:47:33;10.10;99.90
17200;DHT22;8716;52.268;20.968;2023-02-18T11:50:19;10.10;99.90
17200;DHT22;8716;52.268;20.968;2023-02-18T11:52:49;10.20;99.90
17200;DHT22;8716;52.268;20.968;2023-02-18T11:55:20;10.30;99.90
17200;DHT22;8716;52.268;20.968;2023-02-18T11:57:54;10.40;99.90
17200;DHT22;8716;52.268;20.968;2023-02-18T12:00:29;10.30;99.90
17200;DHT22;8716;52.268;20.968;2023-02-18T12:03:03;10.40;99.90
17200;DHT22;8716;52.268;20.968;2023-02-18T12:05:37;10.40;99.90
17200;DHT22;8716;52.268;20.968;2023-02-18T12:08:12;10.40;99.90
17200;DHT22;8716;52.268;20.968;2023-02-18T12:10:45;10.50;99.90
17200;DHT22;8716;52.268;20.968;2023-02-18T12:13:22;10.60;99.90
17200;DHT22;8716;52.268;20.968;2023-02-18T12:15:56;10.70;99.90
17200;DHT22;8716;52.268;20.968;2023-02-18T12:18:40;10.80;99.90
17200;DHT22;8716;52.268;20.968;2023-02-18T12:21:21;10.90;99.90
17200;DHT22;8716;52.268;20.968;2023-02-18T12:24:01;10.90;99.90
17200;DHT22;8716;52.268;20.968;2023-02-18T12:26:37;10.90;99.90
17200;DHT22;8716;52.268;20.968;2023-02-18T12:29:19;10.90;99.90
17200;DHT22;8716;52.268;20.968;2023-02-18T12:32:08;10.80;99.90
17200;DHT22;8716;52.268;20.968;2023-02-18T12:34:45;10.80;99.90
17200;DHT22;8716;52.268;20.968;2023-02-18T12:37:41;10.80;99.90
17200;DHT22;8716;52.268;20.968;2023-02-18T12:40:26;10.80;99.90
17200;DHT22;8716;52.268;20.968;2023-02-18T12:43:05;10.80;99.90
17200;DHT22;8716;52.268;20.968;2023-02-18T12:46:00;10.90;99.90
17200;DHT22;8716;52.268;20.968;2023-02-18T12:48:45;10.90;99.90
17200;DHT22;8716;52.268;20.968;2023-02-18T12:51:24;10.90;99.90
17200;DHT22;8716;52.268;20.968;2023-02-18T12:56:58;11.00;99.90
17200;DHT22;8716;52.268;20.968;2023-02-18T12:59:46;11.10;99.90
17200;DHT22;8716;52.268;20.968;2023-02-18T13:05:27;11.00;99.90
17200;DHT22;8716;52.268;20.968;2023-02-18T13:08:08;10.90;99.90
17200;DHT22;8716;52.268;20.968;2023-02-18T13:11:00;10.80;99.90
17200;DHT22;8716;52.268;20.968;2023-02-18T13:13:33;10.80;99.90
17200;DHT22;8716;52.268;20.968;2023-02-18T13:16:07;10.70;99.90
17200;DHT22;8716;52.268;20.968;2023-02-18T13:18:41;10.70;99.90
17200;DHT22;8716;52.268;20.968;2023-02-18T13:21:12;10.60;99.90
17200;DHT22;8716;52.268;20.968;2023-02-18T13:23:47;10.60;99.90
17200;DHT22;8716;52.268;20.968;2023-02-18T13:26:18;10.50;99.90
17200;DHT22;8716;52.268;20.968;2023-02-18T13:28:51;10.50;99.90
17200;DHT22;8716;52.268;20.968;2023-02-18T13:31:34;10.40;99.90
17200;DHT22;8716;52.268;20.968;2023-02-18T13:34:14;10.30;99.90
17200;DHT22;8716;52.268;20.968;2023-02-18T13:36:52;10.20;99.90
17200;DHT22;8716;52.268;20.968;2023-02-18T13:39:24;10.10;99.90
17200;DHT22;8716;52.268;20.968;2023-02-18T13:42:29;10.00;99.90
17200;DHT22;8716;52.268;20.968;2023-02-18T13:45:22;9.90;99.90
17200;DHT22;8716;52.268;20.968;2023-02-18T13:47:51;9.80;99.90
17200;DHT22;8716;52.268;20.968;2023-02-18T13:50:28;9.80;99.90
17200;DHT22;8716;52.268;20.968;2023-02-18T13:55:51;9.70;99.90
17200;DHT22;8716;52.268;20.968;2023-02-18T13:58:23;9.60;99.90
17200;DHT22;8716;52.268;20.968;2023-02-18T14:00:55;9.60;99.90
17200;DHT22;8716;52.268;20.968;2023-02-18T14:03:36;9.60;99.90
17200;DHT22;8716;52.268;20.968;2023-02-18T14:06:17;9.60;99.90
17200;DHT22;8716;52.268;20.968;2023-02-18T14:08:46;9.60;99.90
17200;DHT22;8716;52.268;20.968;2023-02-18T14:14:35;9.40;99.90
17200;DHT22;8716;52.268;20.968;2023-02-18T14:17:33;9.40;99.90
17200;DHT22;8716;52.268;20.968;2023-02-18T14:23:57;9.30;99.90
17200;DHT22;8716;52.268;20.968;2023-02-18T14:26:31;9.30;99.90
17200;DHT22;8716;52.268;20.968;2023-02-18T14:29:07;9.10;99.90
17200;DHT22;8716;52.268;20.968;2023-02-18T14:31:44;9.00;99.90
17200;DHT22;8716;52.268;20.968;2023-02-18T14:37:56;8.90;99.90
17200;DHT22;8716;52.268;20.968;2023-02-18T14:40:51;8.90;99.90
17200;DHT22;8716;52.268;20.968;2023-02-18T14:46:19;8.90;99.90
17200;DHT22;8716;52.268;20.968;2023-02-18T14:49:12;8.80;99.90
17200;DHT22;8716;52.268;20.968;2023-02-18T14:51:44;8.80;99.90
17200;DHT22;8716;52.268;20.968;2023-02-18T14:54:17;8.70;99.90
17200;DHT22;8716;52.268;20.968;2023-02-18T14:56:55;8.70;99.90
17200;DHT22;8716;52.268;20.968;2023-02-18T14:59:24;8.70;99.90
17200;DHT22;8716;52.268;20.968;2023-02-18T15:01:55;8.70;99.90
17200;DHT22;8716;52.268;20.968;2023-02-18T15:04:24;8.70;99.90
17200;DHT22;8716;52.268;20.968;2023-02-18T15:07:00;8.60;99.90
17200;DHT22;8716;52.268;20.968;2023-02-18T15:09:29;8.60;99.90
17200;DHT22;8716;52.268;20.968;2023-02-18T15:12:01;8.50;99.90
17200;DHT22;8716;52.268;20.968;2023-02-18T15:14:33;8.50;99.90
17200;DHT22;8716;52.268;20.968;2023-02-18T15:17:07;8.40;99.90
17200;DHT22;8716;52.268;20.968;2023-02-18T15:19:43;8.30;99.90
17200;DHT22;8716;52.268;20.968;2023-02-18T15:22:17;8.20;99.90
17200;DHT22;8716;52.268;20.968;2023-02-18T15:24:46;8.10;99.90
17200;DHT22;8716;52.268;20.968;2023-02-18T15:27:18;8.10;99.90
17200;DHT22;8716;52.268;20.968;2023-02-18T15:29:49;8.00;99.90
17200;DHT22;8716;52.268;20.968;2023-02-18T15:32:20;8.00;99.90
17200;DHT22;8716;52.268;20.968;2023-02-18T15:34:49;7.90;99.90
17200;DHT22;8716;52.268;20.968;2023-02-18T15:37:18;7.90;99.90
17200;DHT22;8716;52.268;20.968;2023-02-18T15:39:47;7.80;99.90
17200;DHT22;8716;52.268;20.968;2023-02-18T15:42:24;7.80;99.90
17200;DHT22;8716;52.268;20.968;2023-02-18T15:44:57;7.80;99.90
17200;DHT22;8716;52.268;20.968;2023-02-18T15:47:26;7.70;99.90
17200;DHT22;8716;52.268;20.968;2023-02-18T15:49:57;7.60;99.90
17200;DHT22;8716;52.268;20.968;2023-02-18T15:52:31;7.50;99.90
17200;DHT22;8716;52.268;20.968;2023-02-18T15:55:02;7.40;99.90
17200;DHT22;8716;52.268;20.968;2023-02-18T15:57:33;7.30;99.90
17200;DHT22;8716;52.268;20.968;2023-02-18T16:00:05;7.20;99.90
17200;DHT22;8716;52.268;20.968;2023-02-18T16:02:53;7.10;99.90
17200;DHT22;8716;52.268;20.968;2023-02-18T16:05:25;7.00;99.90
17200;DHT22;8716;52.268;20.968;2023-02-18T16:07:58;7.00;99.90
17200;DHT22;8716;52.268;20.968;2023-02-18T16:10:46;6.90;99.90
17200;DHT22;8716;52.268;20.968;2023-02-18T16:13:17;6.90;99.90
17200;DHT22;8716;52.268;20.968;2023-02-18T16:15:48;6.90;99.90
17200;DHT22;8716;52.268;20.968;2023-02-18T16:18:25;6.80;99.90
17200;DHT22;8716;52.268;20.968;2023-02-18T16:20:58;6.80;99.90
17200;DHT22;8716;52.268;20.968;2023-02-18T16:23:34;6.70;99.90
17200;DHT22;8716;52.268;20.968;2023-02-18T16:26:18;6.60;99.90
17200;DHT22;8716;52.268;20.968;2023-02-18T16:28:50;6.60;99.90
17200;DHT22;8716;52.268;20.968;2023-02-18T16:31:19;6.60;99.90
17200;DHT22;8716;52.268;20.968;2023-02-18T16:33:51;6.50;99.90
17200;DHT22;8716;52.268;20.968;2023-02-18T16:36:21;6.50;99.90
17200;DHT22;8716;52.268;20.968;2023-02-18T16:38:50;6.40;99.90
17200;DHT22;8716;52.268;20.968;2023-02-18T16:41:18;6.40;99.90
17200;DHT22;8716;52.268;20.968;2023-02-18T16:43:48;6.30;99.90
17200;DHT22;8716;52.268;20.968;2023-02-18T16:46:18;6.30;99.90
17200;DHT22;8716;52.268;20.968;2023-02-18T16:48:52;6.30;99.90
17200;DHT22;8716;52.268;20.968;2023-02-18T16:51:23;6.20;99.90